Time;durP1;ratioP1;P1;durP2;ratioP2;P2;SDS_P1;SDS_P2;PMS_P1;PMS_P2;Temp;Humidity;BMP_temperature;BMP_pressure;BME280_temperature;BME280_humidity;BME280_pressure;Samples;Min_cycle;Max_cycle;Signal;HPM_P1;HPM_P2
2022/11/05 00:09:48;;;;;;;;;;;;;;;;;;2082437;28;19917;-93
2022/11/05 00:10:49;;;;;;;;;;;;;;;;;;2081742;28;19949;-93
2022/11/05 00:17:07;;;;;;;;;;;;;;;;;;2089753;28;19913;-94
2022/11/05 00:18:33;;;;;;;;;;;;;;;;;;2084139;28;19972;-94
2022/11/05 00:19:33;;;;;;;;;;;;;;;;;;2077197;28;19924;-94
2022/11/05 00:20:34;;;;;;;;;;;;;;;;;;2082250;28;19936;-94
2022/11/05 00:25:38;;;;;;;;;;;;;;;;;;2082677;28;19921;-93
2022/11/05 00:26:39;;;;;;;;;;;;;;;;;;2081894;28;19913;-95
2022/11/05 00:27:39;;;;;;;;;;;;;;;;;;2073863;28;20004;-95
2022/11/05 00:28:42;;;;;;;;;;;;;;;;;;2073688;28;19917;-93
2022/11/05 00:29:42;;;;;;;;;;;;;;;;;;2073723;28;19918;-91
2022/11/05 00:30:43;;;;;;;;;;;;;;;;;;2074403;28;19914;-93
2022/11/05 00:31:43;;;;;;;;;;;;;;;;;;2074205;28;19956;-92
2022/11/05 00:32:45;;;;;;;;;;;;;;;;;;2073593;28;19936;-93
2022/11/05 00:33:45;;;;;;;;;;;;;;;;;;2082011;28;19914;-93
2022/11/05 00:34:45;;;;;;;;;;;;;;;;;;2081729;28;19932;-91
2022/11/05 00:35:45;;;;;;;;;;;;;;;;;;2073616;28;19914;-93
2022/11/05 00:36:46;;;;;;;;;;;;;;;;;;2073296;28;19920;-92
2022/11/05 00:37:46;;;;;;;;;;;;;;;;;;2081753;28;20387;-93
2022/11/05 00:38:47;;;;;;;;;;;;;;;;;;2082015;28;19921;-93
2022/11/05 00:39:47;;;;;;;;;;;;;;;;;;2081813;28;19920;-93
2022/11/05 00:40:47;;;;;;;;;;;;;;;;;;2082172;28;19913;-93
2022/11/05 00:44:58;;;;;;;;;;;;;;;;;;2085828;28;19932;-93
2022/11/05 00:45:46;;;;;;;;;;;;;;;;;;2092628;28;19909;-94
2022/11/05 00:46:46;;;;;;;;;;;;;;;;;;2083596;28;19923;-93
2022/11/05 00:50:25;;;;;;;;;;;;;;;;;;2082962;28;19917;-93
2022/11/05 00:51:25;;;;;;;;;;;;;;;;;;2082859;28;20340;-94
2022/11/05 00:53:44;;;;;;;;;;;;;;;;;;2089173;28;19901;-93
2022/11/05 00:54:45;;;;;;;;;;;;;;;;;;2092173;28;19976;-93
2022/11/05 00:55:45;;;;;;;;;;;;;;;;;;2079658;28;19992;-94
2022/11/05 00:56:46;;;;;;;;;;;;;;;;;;2082206;28;19948;-94
2022/11/05 00:57:46;;;;;;;;;;;;;;;;;;2091860;28;19928;-96
2022/11/05 00:58:47;;;;;;;;;;;;;;;;;;2088056;28;19916;-95
2022/11/05 00:59:47;;;;;;;;;;;;;;;;;;2076286;28;19922;-95
2022/11/05 01:00:52;;;;;;;;;;;;;;;;;;2073643;28;19986;-95
2022/11/05 01:01:52;;;;;;;;;;;;;;;;;;2081983;28;19913;-95
2022/11/05 01:02:52;;;;;;;;;;;;;;;;;;2081584;28;19939;-94
2022/11/05 01:03:52;;;;;;;;;;;;;;;;;;2089721;28;19913;-93
2022/11/05 01:04:53;;;;;;;;;;;;;;;;;;2073388;28;20048;-95
2022/11/05 01:05:55;;;;;;;;;;;;;;;;;;2081452;28;19913;-92
2022/11/05 01:06:55;;;;;;;;;;;;;;;;;;2073526;28;19920;-95
2022/11/05 01:07:55;;;;;;;;;;;;;;;;;;2081814;28;19913;-96
2022/11/05 01:08:56;;;;;;;;;;;;;;;;;;2081754;28;19948;-94
2022/11/05 01:09:56;;;;;;;;;;;;;;;;;;2081768;28;19917;-94
2022/11/05 01:10:57;;;;;;;;;;;;;;;;;;2081896;28;19955;-95
2022/11/05 01:11:57;;;;;;;;;;;;;;;;;;2073590;28;19913;-94
2022/11/05 01:12:58;;;;;;;;;;;;;;;;;;2086327;28;19913;-94
2022/11/05 01:14:01;;;;;;;;;;;;;;;;;;2087916;28;19923;-95
2022/11/05 01:15:02;;;;;;;;;;;;;;;;;;2079448;28;20004;-95
2022/11/05 01:16:06;;;;;;;;;;;;;;;;;;2087864;28;19913;-95
2022/11/05 01:17:06;;;;;;;;;;;;;;;;;;2081802;28;20019;-93
2022/11/05 01:18:07;;;;;;;;;;;;;;;;;;2078853;28;19925;-94
2022/11/05 01:19:08;;;;;;;;;;;;;;;;;;2076253;28;19913;-96
2022/11/05 01:20:09;;;;;;;;;;;;;;;;;;2075088;28;19913;-94
2022/11/05 01:21:10;;;;;;;;;;;;;;;;;;2073752;28;19957;-94
2022/11/05 01:22:11;;;;;;;;;;;;;;;;;;2073584;28;19924;-96
2022/11/05 01:23:11;;;;;;;;;;;;;;;;;;2073408;28;19917;-95
2022/11/05 01:24:12;;;;;;;;;;;;;;;;;;2073585;28;19913;-94
2022/11/05 01:25:12;;;;;;;;;;;;;;;;;;2073208;28;20020;-94
2022/11/05 01:26:12;;;;;;;;;;;;;;;;;;2081450;28;20283;-94
2022/11/05 01:27:12;;;;;;;;;;;;;;;;;;2081714;28;20368;-93
2022/11/05 01:28:13;;;;;;;;;;;;;;;;;;2081426;28;19978;-95
2022/11/05 01:29:13;;;;;;;;;;;;;;;;;;2081247;28;19913;-91
2022/11/05 01:30:13;;;;;;;;;;;;;;;;;;2080775;28;20431;-92
2022/11/05 01:31:14;;;;;;;;;;;;;;;;;;2089254;28;19935;-92
2022/11/05 01:32:14;;;;;;;;;;;;;;;;;;2072911;28;19913;-93
2022/11/05 01:33:14;;;;;;;;;;;;;;;;;;2080964;28;19920;-92
2022/11/05 01:34:15;;;;;;;;;;;;;;;;;;2081156;28;19967;-93
2022/11/05 01:35:16;;;;;;;;;;;;;;;;;;2081049;28;19959;-93
2022/11/05 01:36:16;;;;;;;;;;;;;;;;;;2081072;28;20276;-92
2022/11/05 01:37:17;;;;;;;;;;;;;;;;;;2072744;28;19995;-93
2022/11/05 01:38:17;;;;;;;;;;;;;;;;;;2081078;28;19920;-92
2022/11/05 01:39:18;;;;;;;;;;;;;;;;;;2081152;28;20390;-92
2022/11/05 01:40:19;;;;;;;;;;;;;;;;;;2072894;28;19948;-93
2022/11/05 01:41:20;;;;;;;;;;;;;;;;;;2081087;28;20035;-93
2022/11/05 01:42:23;;;;;;;;;;;;;;;;;;2080711;28;19916;-93
2022/11/05 01:43:23;;;;;;;;;;;;;;;;;;2073050;28;19964;-92
2022/11/05 01:44:42;;;;;;;;;;;;;;;;;;2072756;28;19914;-93
2022/11/05 01:45:43;;;;;;;;;;;;;;;;;;2075282;28;19913;-93
2022/11/05 01:46:45;;;;;;;;;;;;;;;;;;2072863;28;19988;-93
2022/11/05 01:47:56;;;;;;;;;;;;;;;;;;2073244;28;19992;-93
2022/11/05 01:49:01;;;;;;;;;;;;;;;;;;2082258;28;20020;-94
2022/11/05 01:50:11;;;;;;;;;;;;;;;;;;2081335;28;20376;-94
2022/11/05 01:51:13;;;;;;;;;;;;;;;;;;2074557;28;19924;-95
2022/11/05 01:52:13;;;;;;;;;;;;;;;;;;2073224;28;20004;-94
2022/11/05 01:53:17;;;;;;;;;;;;;;;;;;2073352;28;19920;-94
2022/11/05 01:54:19;;;;;;;;;;;;;;;;;;2081344;28;19924;-94
2022/11/05 01:55:22;;;;;;;;;;;;;;;;;;2072915;28;19932;-95
2022/11/05 01:56:25;;;;;;;;;;;;;;;;;;2081390;28;19913;-95
2022/11/05 01:57:26;;;;;;;;;;;;;;;;;;2082168;28;20388;-93
2022/11/05 01:58:30;;;;;;;;;;;;;;;;;;2074447;28;19913;-94
2022/11/05 01:59:35;;;;;;;;;;;;;;;;;;2073765;28;20426;-94
2022/11/05 02:00:35;;;;;;;;;;;;;;;;;;2073808;28;19920;-94
2022/11/05 02:01:36;;;;;;;;;;;;;;;;;;2073248;28;19929;-92
2022/11/05 02:02:36;;;;;;;;;;;;;;;;;;2072834;28;20012;-94
2022/11/05 02:03:36;;;;;;;;;;;;;;;;;;2073027;28;19921;-93
2022/11/05 02:04:59;;;;;;;;;;;;;;;;;;2080997;28;19976;-94
2022/11/05 02:06:00;;;;;;;;;;;;;;;;;;2083787;28;19943;-92
2022/11/05 02:07:01;;;;;;;;;;;;;;;;;;2080847;28;19991;-94
2022/11/05 02:08:02;;;;;;;;;;;;;;;;;;2072790;28;19913;-94
2022/11/05 02:09:05;;;;;;;;;;;;;;;;;;2080996;28;19913;-93
2022/11/05 02:10:10;;;;;;;;;;;;;;;;;;2081032;28;20012;-94
2022/11/05 02:11:11;;;;;;;;;;;;;;;;;;2073736;28;20343;-93
2022/11/05 02:12:13;;;;;;;;;;;;;;;;;;2072814;28;19968;-94
2022/11/05 02:13:13;;;;;;;;;;;;;;;;;;2072822;28;19972;-94
2022/11/05 02:14:14;;;;;;;;;;;;;;;;;;2072833;28;19913;-94
2022/11/05 02:15:16;;;;;;;;;;;;;;;;;;2080824;28;19920;-93
2022/11/05 02:16:35;;;;;;;;;;;;;;;;;;2080838;28;19913;-93
2022/11/05 02:17:35;;;;;;;;;;;;;;;;;;2075212;28;19914;-93
2022/11/05 02:18:50;;;;;;;;;;;;;;;;;;2080885;28;20014;-94
2022/11/05 02:20:03;;;;;;;;;;;;;;;;;;2080810;28;20292;-93
2022/11/05 02:21:12;;;;;;;;;;;;;;;;;;2081367;28;20267;-95
2022/11/05 02:22:31;;;;;;;;;;;;;;;;;;2074135;28;20004;-95
2022/11/05 02:23:43;;;;;;;;;;;;;;;;;;1729346;28;10001363;-94
2022/11/05 02:25:02;;;;;;;;;;;;;;;;;;2074341;28;19914;-94
2022/11/05 02:26:02;;;;;;;;;;;;;;;;;;2083774;28;19913;-94
2022/11/05 02:27:14;;;;;;;;;;;;;;;;;;2081068;28;20398;-94
2022/11/05 02:28:33;;;;;;;;;;;;;;;;;;2082707;28;20058;-95
2022/11/05 02:29:45;;;;;;;;;;;;;;;;;;2080711;28;20031;-94
2022/11/05 02:30:52;;;;;;;;;;;;;;;;;;1727223;28;10049932;-93
2022/11/05 02:32:11;;;;;;;;;;;;;;;;;;2073774;28;20017;-93
2022/11/05 02:33:34;;;;;;;;;;;;;;;;;;2075219;28;19914;-93
2022/11/05 02:34:55;;;;;;;;;;;;;;;;;;2076502;28;19913;-94
2022/11/05 02:36:01;;;;;;;;;;;;;;;;;;2075568;28;20017;-94
2022/11/05 02:37:08;;;;;;;;;;;;;;;;;;2073666;28;19924;-94
2022/11/05 02:38:25;;;;;;;;;;;;;;;;;;2073800;28;20005;-93
2022/11/05 02:39:45;;;;;;;;;;;;;;;;;;2083201;28;19919;-93
2022/11/05 02:40:55;;;;;;;;;;;;;;;;;;2087612;28;19913;-91
2022/11/05 02:42:01;;;;;;;;;;;;;;;;;;2080812;28;19921;-92
2022/11/05 02:43:04;;;;;;;;;;;;;;;;;;2074270;28;20319;-93
2022/11/05 02:44:16;;;;;;;;;;;;;;;;;;2081639;28;19933;-93
2022/11/05 02:45:37;;;;;;;;;;;;;;;;;;2074173;28;19914;-95
2022/11/05 02:47:09;;;;;;;;;;;;;;;;;;2076032;28;19987;-95
2022/11/05 02:48:18;;;;;;;;;;;;;;;;;;2068666;28;19914;-94
2022/11/05 02:49:41;;;;;;;;;;;;;;;;;;2080446;28;20441;-94
2022/11/05 02:50:47;;;;;;;;;;;;;;;;;;2077712;28;19975;-93
2022/11/05 02:51:58;;;;;;;;;;;;;;;;;;2073515;28;19918;-94
2022/11/05 02:53:07;;;;;;;;;;;;;;;;;;2073885;28;19917;-93
2022/11/05 02:54:12;;;;;;;;;;;;;;;;;;2073854;28;20436;-94
2022/11/05 02:55:19;;;;;;;;;;;;;;;;;;2073745;28;19917;-93
2022/11/05 02:56:21;;;;;;;;;;;;;;;;;;2075261;28;20288;-94
2022/11/05 02:57:22;;;;;;;;;;;;;;;;;;2072994;28;19913;-94
2022/11/05 02:58:22;;;;;;;;;;;;;;;;;;2052749;28;20284;-93
2022/11/05 02:59:22;;;;;;;;;;;;;;;;;;2072666;28;19917;-93
2022/11/05 03:00:44;;;;;;;;;;;;;;;;;;2072537;28;19921;-94
2022/11/05 03:01:45;;;;;;;;;;;;;;;;;;2075186;28;20003;-92
2022/11/05 03:02:45;;;;;;;;;;;;;;;;;;2080707;28;20019;-92
2022/11/05 03:03:53;;;;;;;;;;;;;;;;;;2072416;28;19963;-92
2022/11/05 03:04:53;;;;;;;;;;;;;;;;;;2073368;28;20400;-92
2022/11/05 03:06:12;;;;;;;;;;;;;;;;;;2080732;28;20012;-92
2022/11/05 03:07:25;;;;;;;;;;;;;;;;;;2082282;28;19913;-93
2022/11/05 03:08:44;;;;;;;;;;;;;;;;;;2075905;28;19913;-92
2022/11/05 03:09:56;;;;;;;;;;;;;;;;;;2076684;28;19917;-94
2022/11/05 03:11:01;;;;;;;;;;;;;;;;;;2075693;28;19914;-93
2022/11/05 03:12:03;;;;;;;;;;;;;;;;;;2074711;28;19917;-92
2022/11/05 03:13:06;;;;;;;;;;;;;;;;;;2074314;28;19924;-92
2022/11/05 03:14:09;;;;;;;;;;;;;;;;;;2074323;28;19964;-92
2022/11/05 03:15:28;;;;;;;;;;;;;;;;;;1387453;28;10001610;-91
2022/11/05 03:16:31;;;;;;;;;;;;;;;;;;2074789;28;20004;-93
2022/11/05 03:17:58;;;;;;;;;;;;;;;;;;2082770;28;19940;-93
2022/11/05 03:19:12;;;;;;;;;;;;;;;;;;2074403;28;19976;-92
2022/11/05 03:20:20;;;;;;;;;;;;;;;;;;2065605;28;19920;-93
2022/11/05 03:21:22;;;;;;;;;;;;;;;;;;2082669;28;19920;-93
2022/11/05 03:22:24;;;;;;;;;;;;;;;;;;2082255;28;19919;-92
2022/11/05 03:23:29;;;;;;;;;;;;;;;;;;2074419;28;19917;-93
2022/11/05 03:24:31;;;;;;;;;;;;;;;;;;2074902;28;19975;-94
2022/11/05 03:25:35;;;;;;;;;;;;;;;;;;2074273;28;19913;-93
2022/11/05 03:26:46;;;;;;;;;;;;;;;;;;2074590;28;19924;-92
2022/11/05 03:27:48;;;;;;;;;;;;;;;;;;2091459;28;19917;-91
2022/11/05 03:28:58;;;;;;;;;;;;;;;;;;2092052;28;19916;-92
2022/11/05 03:30:00;;;;;;;;;;;;;;;;;;2090416;28;19938;-92
2022/11/05 03:31:02;;;;;;;;;;;;;;;;;;2087138;28;19917;-92
2022/11/05 03:32:04;;;;;;;;;;;;;;;;;;2084902;28;19917;-93
2022/11/05 03:33:07;;;;;;;;;;;;;;;;;;2083237;28;19919;-92
2022/11/05 03:34:08;;;;;;;;;;;;;;;;;;2081937;28;19913;-91
2022/11/05 03:35:18;;;;;;;;;;;;;;;;;;2082463;28;20017;-93
2022/11/05 03:36:20;;;;;;;;;;;;;;;;;;2082127;28;20001;-91
2022/11/05 03:37:21;;;;;;;;;;;;;;;;;;2081942;28;20487;-91
2022/11/05 03:38:25;;;;;;;;;;;;;;;;;;2082009;28;19920;-92
2022/11/05 03:39:30;;;;;;;;;;;;;;;;;;2074083;28;19927;-92
2022/11/05 03:40:32;;;;;;;;;;;;;;;;;;2074433;28;19980;-92
2022/11/05 03:41:33;;;;;;;;;;;;;;;;;;2073941;28;19956;-92
2022/11/05 03:42:35;;;;;;;;;;;;;;;;;;2073918;28;19920;-91
2022/11/05 03:43:37;;;;;;;;;;;;;;;;;;2073800;28;19913;-91
2022/11/05 03:44:39;;;;;;;;;;;;;;;;;;2081586;28;19913;-92
2022/11/05 03:45:42;;;;;;;;;;;;;;;;;;2082918;28;20000;-94
2022/11/05 03:46:48;;;;;;;;;;;;;;;;;;2074726;28;19914;-94
2022/11/05 03:47:49;;;;;;;;;;;;;;;;;;2076648;28;19983;-93
2022/11/05 03:48:51;;;;;;;;;;;;;;;;;;2092161;28;19909;-93
2022/11/05 03:49:58;;;;;;;;;;;;;;;;;;2097359;28;19921;-93
2022/11/05 03:51:07;;;;;;;;;;;;;;;;;;2085588;28;19928;-93
2022/11/05 03:52:13;;;;;;;;;;;;;;;;;;2075451;28;19914;-92
2022/11/05 03:53:30;;;;;;;;;;;;;;;;;;2082519;28;19991;-93
2022/11/05 03:54:31;;;;;;;;;;;;;;;;;;2082054;28;19917;-93
2022/11/05 03:55:34;;;;;;;;;;;;;;;;;;2074163;28;19924;-93
2022/11/05 03:56:37;;;;;;;;;;;;;;;;;;2074059;28;19962;-93
2022/11/05 03:57:39;;;;;;;;;;;;;;;;;;2074024;28;20007;-93
2022/11/05 03:58:43;;;;;;;;;;;;;;;;;;2073914;28;20356;-93
2022/11/05 03:59:45;;;;;;;;;;;;;;;;;;2073995;28;20423;-92
2022/11/05 04:00:46;;;;;;;;;;;;;;;;;;2082132;28;19920;-93
2022/11/05 04:01:47;;;;;;;;;;;;;;;;;;2082647;28;20336;-93
2022/11/05 04:02:47;;;;;;;;;;;;;;;;;;1734505;28;10001790;-93
2022/11/05 04:03:47;;;;;;;;;;;;;;;;;;2073738;28;19948;-93
2022/11/05 04:04:48;;;;;;;;;;;;;;;;;;2073498;28;19914;-93
2022/11/05 04:13:22;;;;;;;;;;;;;;;;;;2073731;28;20432;-94
2022/11/05 04:13:45;;;;;;;;;;;;;;;;;;2082779;28;20295;-91
2022/11/05 04:14:45;;;;;;;;;;;;;;;;;;2081732;28;19934;-92
2022/11/05 04:17:09;;;;;;;;;;;;;;;;;;2097966;28;19920;-91
2022/11/05 04:18:09;;;;;;;;;;;;;;;;;;2082435;28;20011;-91
2022/11/05 04:19:09;;;;;;;;;;;;;;;;;;2073539;28;20012;-91
2022/11/05 04:24:09;;;;;;;;;;;;;;;;;;2083581;28;20359;-95
2022/11/05 04:25:10;;;;;;;;;;;;;;;;;;2083259;28;20368;-96
2022/11/05 04:26:10;;;;;;;;;;;;;;;;;;2073860;28;19928;-96
2022/11/05 04:27:11;;;;;;;;;;;;;;;;;;2074767;28;19920;-94
2022/11/05 04:31:33;;;;;;;;;;;;;;;;;;2100975;28;19925;-95
2022/11/05 04:32:33;;;;;;;;;;;;;;;;;;2090103;28;19955;-94
2022/11/05 04:33:33;;;;;;;;;;;;;;;;;;2090294;28;20062;-92
2022/11/05 04:34:34;;;;;;;;;;;;;;;;;;2089814;28;20000;-92
2022/11/05 04:35:35;;;;;;;;;;;;;;;;;;2084090;28;20056;-93
2022/11/05 04:36:36;;;;;;;;;;;;;;;;;;2081681;28;20022;-92
2022/11/05 04:37:36;;;;;;;;;;;;;;;;;;2081830;28;19917;-94
2022/11/05 04:38:36;;;;;;;;;;;;;;;;;;2090153;28;20329;-94
2022/11/05 04:39:36;;;;;;;;;;;;;;;;;;2089916;28;20298;-94
2022/11/05 04:40:37;;;;;;;;;;;;;;;;;;2098329;28;19966;-94
2022/11/05 04:41:37;;;;;;;;;;;;;;;;;;2081843;28;20017;-94
2022/11/05 04:42:38;;;;;;;;;;;;;;;;;;2090760;28;19952;-94
2022/11/05 04:43:38;;;;;;;;;;;;;;;;;;2073327;28;19918;-95
2022/11/05 04:44:38;;;;;;;;;;;;;;;;;;2075161;28;20009;-94
2022/11/05 04:45:38;;;;;;;;;;;;;;;;;;2075549;28;19964;-93
2022/11/05 04:46:51;;;;;;;;;;;;;;;;;;1456302;28;10001034;-94
2022/11/05 04:47:51;;;;;;;;;;;;;;;;;;2074399;28;19960;-93
2022/11/05 04:48:52;;;;;;;;;;;;;;;;;;2065615;28;19949;-93
2022/11/05 04:49:52;;;;;;;;;;;;;;;;;;2065311;28;19939;-87
2022/11/05 04:50:52;;;;;;;;;;;;;;;;;;2080612;28;19978;-87
2022/11/05 04:51:52;;;;;;;;;;;;;;;;;;2089398;28;19917;-88
2022/11/05 04:52:53;;;;;;;;;;;;;;;;;;2090094;28;19913;-88
2022/11/05 04:53:53;;;;;;;;;;;;;;;;;;2090057;28;20334;-87
2022/11/05 04:54:53;;;;;;;;;;;;;;;;;;2089604;28;19967;-88
2022/11/05 04:55:54;;;;;;;;;;;;;;;;;;2089091;28;20373;-88
2022/11/05 04:56:54;;;;;;;;;;;;;;;;;;2089451;28;20021;-87
2022/11/05 04:57:54;;;;;;;;;;;;;;;;;;2074942;28;19921;-88
2022/11/05 04:58:55;;;;;;;;;;;;;;;;;;2073176;28;20438;-88
2022/11/05 04:59:55;;;;;;;;;;;;;;;;;;2086584;28;19923;-88
2022/11/05 05:00:55;;;;;;;;;;;;;;;;;;2089477;28;19912;-88
2022/11/05 05:01:56;;;;;;;;;;;;;;;;;;2072371;28;20007;-87
2022/11/05 05:02:56;;;;;;;;;;;;;;;;;;2072113;28;19913;-88
2022/11/05 05:03:56;;;;;;;;;;;;;;;;;;2072184;28;20000;-87
2022/11/05 05:04:56;;;;;;;;;;;;;;;;;;2085419;28;19955;-87
2022/11/05 05:05:59;;;;;;;;;;;;;;;;;;2088678;28;20375;-87
2022/11/05 05:07:00;;;;;;;;;;;;;;;;;;2097424;28;19939;-87
2022/11/05 05:08:01;;;;;;;;;;;;;;;;;;2098090;28;20426;-87
2022/11/05 05:09:01;;;;;;;;;;;;;;;;;;2089195;28;19986;-88
2022/11/05 05:10:03;;;;;;;;;;;;;;;;;;2088753;28;20057;-88
2022/11/05 05:11:04;;;;;;;;;;;;;;;;;;2097584;28;20264;-87
2022/11/05 05:12:04;;;;;;;;;;;;;;;;;;2094653;28;19917;-87
2022/11/05 05:13:05;;;;;;;;;;;;;;;;;;2081021;28;20379;-88
2022/11/05 05:14:05;;;;;;;;;;;;;;;;;;2081293;28;19995;-87
2022/11/05 05:15:06;;;;;;;;;;;;;;;;;;2080495;28;19913;-87
2022/11/05 05:16:07;;;;;;;;;;;;;;;;;;2081157;28;19913;-87
2022/11/05 05:17:07;;;;;;;;;;;;;;;;;;2081151;28;19966;-88
2022/11/05 05:18:07;;;;;;;;;;;;;;;;;;2081122;28;19967;-88
2022/11/05 05:19:08;;;;;;;;;;;;;;;;;;2089219;28;20403;-88
2022/11/05 05:21:39;;;;;;;;;;;;;;;;;;2082820;28;19913;-88
2022/11/05 05:22:40;;;;;;;;;;;;;;;;;;2092872;28;19913;-87
2022/11/05 05:23:40;;;;;;;;;;;;;;;;;;2098052;28;19923;-88
2022/11/05 05:24:40;;;;;;;;;;;;;;;;;;2097646;28;20397;-88
2022/11/05 05:25:40;;;;;;;;;;;;;;;;;;2097970;28;19923;-87
2022/11/05 05:26:42;;;;;;;;;;;;;;;;;;2086384;28;19928;-88
2022/11/05 05:27:42;;;;;;;;;;;;;;;;;;2071201;28;19921;-88
2022/11/05 05:28:43;;;;;;;;;;;;;;;;;;2080978;28;20007;-88
2022/11/05 05:29:43;;;;;;;;;;;;;;;;;;2090241;28;19959;-88
2022/11/05 05:30:43;;;;;;;;;;;;;;;;;;2096724;28;20628;-88
2022/11/05 05:31:44;;;;;;;;;;;;;;;;;;2097542;28;19928;-88
2022/11/05 05:32:44;;;;;;;;;;;;;;;;;;2080817;28;19913;-88
2022/11/05 05:33:45;;;;;;;;;;;;;;;;;;2080865;28;20031;-88
2022/11/05 05:34:45;;;;;;;;;;;;;;;;;;2083949;28;19913;-87
2022/11/05 05:35:46;;;;;;;;;;;;;;;;;;2080654;28;19960;-87
2022/11/05 05:36:46;;;;;;;;;;;;;;;;;;2089008;28;20008;-89
2022/11/05 05:37:46;;;;;;;;;;;;;;;;;;2093831;28;19927;-87
2022/11/05 05:38:47;;;;;;;;;;;;;;;;;;2097053;28;19959;-88
2022/11/05 05:39:47;;;;;;;;;;;;;;;;;;2089321;28;19940;-88
2022/11/05 05:40:51;;;;;;;;;;;;;;;;;;2071741;28;19992;-87
2022/11/05 05:41:51;;;;;;;;;;;;;;;;;;2068544;28;20446;-88
2022/11/05 05:42:52;;;;;;;;;;;;;;;;;;2078888;28;20087;-86
2022/11/05 05:43:52;;;;;;;;;;;;;;;;;;2072137;28;20000;-88
2022/11/05 05:44:53;;;;;;;;;;;;;;;;;;2080444;28;19921;-88
2022/11/05 05:45:53;;;;;;;;;;;;;;;;;;2089082;28;20090;-88
2022/11/05 05:46:54;;;;;;;;;;;;;;;;;;2089128;28;20259;-87
2022/11/05 05:47:55;;;;;;;;;;;;;;;;;;2080528;28;20265;-87
2022/11/05 05:48:55;;;;;;;;;;;;;;;;;;2080557;28;19917;-87
2022/11/05 05:49:56;;;;;;;;;;;;;;;;;;2089682;28;19921;-87
2022/11/05 05:51:00;;;;;;;;;;;;;;;;;;2088870;28;19912;-87
2022/11/05 05:52:01;;;;;;;;;;;;;;;;;;2085192;28;19991;-86
2022/11/05 05:53:01;;;;;;;;;;;;;;;;;;2079271;28;20587;-86
2022/11/05 05:54:02;;;;;;;;;;;;;;;;;;2084699;28;20271;-87
2022/11/05 05:55:02;;;;;;;;;;;;;;;;;;2085185;28;20002;-86
2022/11/05 05:56:03;;;;;;;;;;;;;;;;;;2087455;28;19936;-87
2022/11/05 05:57:03;;;;;;;;;;;;;;;;;;2084521;28;20360;-86
2022/11/05 05:58:03;;;;;;;;;;;;;;;;;;2085993;28;19924;-86
2022/11/05 05:59:04;;;;;;;;;;;;;;;;;;2077877;28;19917;-87
2022/11/05 06:00:05;;;;;;;;;;;;;;;;;;2070223;28;19913;-86
2022/11/05 06:01:09;;;;;;;;;;;;;;;;;;2072508;28;19924;-87
2022/11/05 06:02:11;;;;;;;;;;;;;;;;;;2072859;28;20392;-86
2022/11/05 06:03:13;;;;;;;;;;;;;;;;;;2080788;28;20356;-86
2022/11/05 06:04:14;;;;;;;;;;;;;;;;;;2089937;28;20300;-87
2022/11/05 06:05:17;;;;;;;;;;;;;;;;;;2093359;28;19917;-87
2022/11/05 06:06:21;;;;;;;;;;;;;;;;;;2098900;28;19917;-86
2022/11/05 06:07:21;;;;;;;;;;;;;;;;;;2079918;28;20369;-86
2022/11/05 06:08:22;;;;;;;;;;;;;;;;;;2094452;28;19936;-87
2022/11/05 06:09:22;;;;;;;;;;;;;;;;;;2095416;28;19971;-85
2022/11/05 06:10:23;;;;;;;;;;;;;;;;;;2086498;28;20004;-86
2022/11/05 06:11:23;;;;;;;;;;;;;;;;;;2082943;28;19921;-85
2022/11/05 06:12:24;;;;;;;;;;;;;;;;;;2080853;28;20217;-87
2022/11/05 06:13:25;;;;;;;;;;;;;;;;;;2071824;28;19913;-86
2022/11/05 06:14:25;;;;;;;;;;;;;;;;;;2072432;28;20341;-87
2022/11/05 06:15:25;;;;;;;;;;;;;;;;;;2078895;28;20453;-86
2022/11/05 06:16:27;;;;;;;;;;;;;;;;;;2080272;28;19913;-86
2022/11/05 06:17:27;;;;;;;;;;;;;;;;;;2072309;28;19921;-86
2022/11/05 06:18:28;;;;;;;;;;;;;;;;;;2081152;28;20419;-86
2022/11/05 06:19:28;;;;;;;;;;;;;;;;;;2081080;28;19913;-86
2022/11/05 06:20:29;;;;;;;;;;;;;;;;;;2078359;28;20012;-86
2022/11/05 06:21:29;;;;;;;;;;;;;;;;;;2080099;28;20102;-86
2022/11/05 06:22:29;;;;;;;;;;;;;;;;;;2089031;28;20479;-86
2022/11/05 06:23:31;;;;;;;;;;;;;;;;;;2097075;28;19919;-87
2022/11/05 06:24:31;;;;;;;;;;;;;;;;;;1921409;28;5081607;-88
2022/11/05 06:25:32;;;;;;;;;;;;;;;;;;2090972;28;19938;-87
2022/11/05 06:26:32;;;;;;;;;;;;;;;;;;2081953;28;20013;-87
2022/11/05 06:27:33;;;;;;;;;;;;;;;;;;2080575;28;19991;-86
2022/11/05 06:28:33;;;;;;;;;;;;;;;;;;2093156;28;19970;-86
2022/11/05 06:29:40;;;;;;;;;;;;;;;;;;1960230;28;10162379;-86
2022/11/05 06:30:40;;;;;;;;;;;;;;;;;;2081673;28;19917;-87
2022/11/05 06:31:40;;;;;;;;;;;;;;;;;;2087432;28;20338;-86
2022/11/05 06:32:41;;;;;;;;;;;;;;;;;;2088853;28;19955;-87
2022/11/05 06:33:41;;;;;;;;;;;;;;;;;;2089221;28;19917;-86
2022/11/05 06:34:41;;;;;;;;;;;;;;;;;;2080384;28;19913;-86
2022/11/05 06:35:42;;;;;;;;;;;;;;;;;;2083884;28;20306;-87
2022/11/05 06:36:42;;;;;;;;;;;;;;;;;;2089386;28;19919;-88
2022/11/05 06:37:42;;;;;;;;;;;;;;;;;;2090854;28;19995;-87
2022/11/05 06:38:42;;;;;;;;;;;;;;;;;;2092010;28;19913;-85
2022/11/05 06:39:44;;;;;;;;;;;;;;;;;;2091403;28;20131;-86
2022/11/05 06:40:44;;;;;;;;;;;;;;;;;;2089962;28;20493;-86
2022/11/05 06:41:44;;;;;;;;;;;;;;;;;;2089024;28;19963;-87
2022/11/05 06:42:45;;;;;;;;;;;;;;;;;;2088412;28;19924;-86
2022/11/05 06:43:45;;;;;;;;;;;;;;;;;;2094785;28;20000;-86
2022/11/05 06:44:45;;;;;;;;;;;;;;;;;;2105412;28;19913;-87
2022/11/05 06:45:46;;;;;;;;;;;;;;;;;;2088896;28;19913;-86
2022/11/05 06:46:46;;;;;;;;;;;;;;;;;;2088329;28;20402;-88
2022/11/05 06:47:46;;;;;;;;;;;;;;;;;;2097511;28;19936;-88
2022/11/05 06:48:47;;;;;;;;;;;;;;;;;;2087306;28;19913;-87
2022/11/05 06:49:47;;;;;;;;;;;;;;;;;;2089058;28;19913;-88
2022/11/05 06:50:47;;;;;;;;;;;;;;;;;;2096920;28;19924;-88
2022/11/05 06:51:48;;;;;;;;;;;;;;;;;;2097095;28;20012;-88
2022/11/05 06:53:06;;;;;;;;;;;;;;;;;;2088766;28;20062;-86
2022/11/05 06:54:07;;;;;;;;;;;;;;;;;;2074677;28;19969;-87
2022/11/05 06:55:07;;;;;;;;;;;;;;;;;;2072141;28;19914;-89
2022/11/05 06:56:08;;;;;;;;;;;;;;;;;;2088605;28;19913;-89
2022/11/05 06:57:09;;;;;;;;;;;;;;;;;;2097008;28;19919;-88
2022/11/05 06:58:10;;;;;;;;;;;;;;;;;;2084109;28;19921;-87
2022/11/05 06:59:10;;;;;;;;;;;;;;;;;;2076408;28;19921;-88
2022/11/05 07:00:19;;;;;;;;;;;;;;;;;;2081282;28;19976;-88
2022/11/05 07:01:20;;;;;;;;;;;;;;;;;;2084600;28;19991;-88
2022/11/05 07:02:20;;;;;;;;;;;;;;;;;;2079504;28;19964;-87
2022/11/05 07:03:20;;;;;;;;;;;;;;;;;;2088877;28;20007;-88
2022/11/05 07:04:21;;;;;;;;;;;;;;;;;;2089308;28;19913;-86
2022/11/05 07:05:22;;;;;;;;;;;;;;;;;;2088711;28;20011;-88
2022/11/05 07:06:22;;;;;;;;;;;;;;;;;;2088406;28;19932;-86
2022/11/05 07:07:22;;;;;;;;;;;;;;;;;;2088192;28;19916;-88
2022/11/05 07:08:23;;;;;;;;;;;;;;;;;;2089457;28;19984;-87
2022/11/05 07:09:23;;;;;;;;;;;;;;;;;;2089742;28;19924;-88
2022/11/05 07:10:26;;;;;;;;;;;;;;;;;;2089693;28;19927;-88
2022/11/05 07:11:27;;;;;;;;;;;;;;;;;;2089426;28;19913;-86
2022/11/05 07:12:53;;;;;;;;;;;;;;;;;;2093814;28;19951;-87
2022/11/05 07:13:54;;;;;;;;;;;;;;;;;;2088857;28;19916;-85
2022/11/05 07:14:54;;;;;;;;;;;;;;;;;;2098895;28;19913;-88
2022/11/05 07:15:54;;;;;;;;;;;;;;;;;;2092247;28;19913;-87
2022/11/05 07:17:01;;;;;;;;;;;;;;;;;;2092234;28;20031;-87
2022/11/05 07:18:01;;;;;;;;;;;;;;;;;;2100289;28;19917;-87
2022/11/05 07:19:01;;;;;;;;;;;;;;;;;;2099367;28;20295;-87
2022/11/05 07:20:02;;;;;;;;;;;;;;;;;;2084278;28;20070;-87
2022/11/05 07:21:03;;;;;;;;;;;;;;;;;;2074905;28;20380;-86
2022/11/05 07:22:11;;;;;;;;;;;;;;;;;;2000240;28;10000682;-86
2022/11/05 07:23:12;;;;;;;;;;;;;;;;;;2100311;28;19924;-87
2022/11/05 07:24:13;;;;;;;;;;;;;;;;;;2089573;28;19917;-85
2022/11/05 07:25:16;;;;;;;;;;;;;;;;;;2083056;28;20020;-88
2022/11/05 07:26:17;;;;;;;;;;;;;;;;;;2082667;28;20249;-87
2022/11/05 07:27:20;;;;;;;;;;;;;;;;;;2089201;28;19978;-87
2022/11/05 07:28:22;;;;;;;;;;;;;;;;;;2087316;28;19917;-87
2022/11/05 07:29:22;;;;;;;;;;;;;;;;;;1733164;28;10205481;-88
2022/11/05 07:30:22;;;;;;;;;;;;;;;;;;2091123;28;19960;-88
2022/11/05 07:31:24;;;;;;;;;;;;;;;;;;2090737;28;19925;-88
2022/11/05 07:32:25;;;;;;;;;;;;;;;;;;2090464;28;19947;-88
2022/11/05 07:33:38;;;;;;;;;;;;;;;;;;2092140;28;19921;-87
2022/11/05 07:34:38;;;;;;;;;;;;;;;;;;2083039;28;19914;-90
2022/11/05 07:35:38;;;;;;;;;;;;;;;;;;2084796;28;19901;-89
2022/11/05 07:36:39;;;;;;;;;;;;;;;;;;2099568;28;19957;-87
2022/11/05 07:37:46;;;;;;;;;;;;;;;;;;2101778;28;19913;-87
2022/11/05 07:38:46;;;;;;;;;;;;;;;;;;2093043;28;19913;-87
2022/11/05 07:40:06;;;;;;;;;;;;;;;;;;2092720;28;19988;-88
2022/11/05 07:41:07;;;;;;;;;;;;;;;;;;2080970;28;19956;-90
2022/11/05 07:42:11;;;;;;;;;;;;;;;;;;2076518;28;19913;-89
2022/11/05 07:43:11;;;;;;;;;;;;;;;;;;2087077;28;19920;-90
2022/11/05 07:44:13;;;;;;;;;;;;;;;;;;2098341;28;19913;-89
2022/11/05 07:45:15;;;;;;;;;;;;;;;;;;2101313;28;19917;-89
2022/11/05 07:46:15;;;;;;;;;;;;;;;;;;2093896;28;19988;-89
2022/11/05 07:47:15;;;;;;;;;;;;;;;;;;2093732;28;19951;-89
2022/11/05 07:48:15;;;;;;;;;;;;;;;;;;2089607;28;20572;-89
2022/11/05 07:49:16;;;;;;;;;;;;;;;;;;2086666;28;20162;-89
2022/11/05 07:50:17;;;;;;;;;;;;;;;;;;2088071;28;20291;-89
2022/11/05 07:51:18;;;;;;;;;;;;;;;;;;2086138;28;19925;-89